sensor_id;sensor_type;location;lat;lon;timestamp;pressure;altitude;pressure_sealevel;temperature;humidity
13420;BME280;6781;58.440;15.470;2023-03-14T00:01:08;99198.66;;;6.01;100.00
13420;BME280;6781;58.440;15.470;2023-03-14T00:03:36;99135.16;;;5.80;100.00
13420;BME280;6781;58.440;15.470;2023-03-14T00:06:04;99149.47;;;5.94;100.00
13420;BME280;6781;58.440;15.470;2023-03-14T00:08:31;99149.59;;;5.93;100.00
13420;BME280;6781;58.440;15.470;2023-03-14T00:10:58;99073.53;;;5.48;100.00
13420;BME280;6781;58.440;15.470;2023-03-14T00:13:30;99140.53;;;6.19;100.00
13420;BME280;6781;58.440;15.470;2023-03-14T00:16:02;99073.69;;;5.77;100.00
13420;BME280;6781;58.440;15.470;2023-03-14T00:18:29;99133.22;;;6.24;100.00
13420;BME280;6781;58.440;15.470;2023-03-14T00:20:59;99074.50;;;5.78;100.00
13420;BME280;6781;58.440;15.470;2023-03-14T00:23:27;99086.88;;;6.14;100.00
13420;BME280;6781;58.440;15.470;2023-03-14T00:25:58;98954.91;;;5.22;100.00
13420;BME280;6781;58.440;15.470;2023-03-14T00:28:25;99120.53;;;6.32;100.00
13420;BME280;6781;58.440;15.470;2023-03-14T00:30:52;99112.66;;;6.34;100.00
13420;BME280;6781;58.440;15.470;2023-03-14T00:33:20;99091.25;;;6.33;100.00
13420;BME280;6781;58.440;15.470;2023-03-14T00:35:53;98911.75;;;5.16;100.00
13420;BME280;6781;58.440;15.470;2023-03-14T00:38:21;99053.59;;;6.32;100.00
13420;BME280;6781;58.440;15.470;2023-03-14T00:40:49;98924.72;;;5.55;100.00
13420;BME280;6781;58.440;15.470;2023-03-14T00:43:17;99036.78;;;6.28;100.00
13420;BME280;6781;58.440;15.470;2023-03-14T00:45:46;99049.81;;;6.36;100.00
13420;BME280;6781;58.440;15.470;2023-03-14T00:48:13;99030.28;;;6.34;100.00
13420;BME280;6781;58.440;15.470;2023-03-14T00:50:40;98972.53;;;6.07;100.00
13420;BME280;6781;58.440;15.470;2023-03-14T00:53:07;98810.47;;;5.09;100.00
13420;BME280;6781;58.440;15.470;2023-03-14T00:55:38;98874.81;;;5.57;100.00
13420;BME280;6781;58.440;15.470;2023-03-14T00:58:06;98764.16;;;4.90;100.00
13420;BME280;6781;58.440;15.470;2023-03-14T01:00:33;98995.50;;;6.49;100.00
13420;BME280;6781;58.440;15.470;2023-03-14T01:03:00;98988.03;;;6.46;100.00
13420;BME280;6781;58.440;15.470;2023-03-14T01:05:27;98944.38;;;6.25;100.00
13420;BME280;6781;58.440;15.470;2023-03-14T01:07:54;98969.19;;;6.45;100.00
13420;BME280;6781;58.440;15.470;2023-03-14T01:10:21;98948.47;;;6.47;100.00
13420;BME280;6781;58.440;15.470;2023-03-14T01:12:50;98908.34;;;6.25;100.00
13420;BME280;6781;58.440;15.470;2023-03-14T01:15:17;98812.41;;;5.55;100.00
13420;BME280;6781;58.440;15.470;2023-03-14T01:17:44;98918.66;;;6.25;100.00
13420;BME280;6781;58.440;15.470;2023-03-14T01:20:13;98948.31;;;6.48;100.00
13420;BME280;6781;58.440;15.470;2023-03-14T01:22:41;98806.75;;;5.71;100.00
13420;BME280;6781;58.440;15.470;2023-03-14T01:25:10;98886.13;;;6.24;100.00
13420;BME280;6781;58.440;15.470;2023-03-14T01:27:37;98937.63;;;6.43;100.00
13420;BME280;6781;58.440;15.470;2023-03-14T01:30:07;98925.69;;;6.42;100.00
13420;BME280;6781;58.440;15.470;2023-03-14T01:32:35;98914.03;;;6.38;100.00
13420;BME280;6781;58.440;15.470;2023-03-14T01:35:02;98831.56;;;5.92;100.00
13420;BME280;6781;58.440;15.470;2023-03-14T01:37:30;98907.53;;;6.44;100.00
13420;BME280;6781;58.440;15.470;2023-03-14T01:39:57;98845.06;;;5.84;100.00
13420;BME280;6781;58.440;15.470;2023-03-14T01:42:24;98899.69;;;6.45;100.00
13420;BME280;6781;58.440;15.470;2023-03-14T01:44:53;98884.66;;;6.22;100.00
13420;BME280;6781;58.440;15.470;2023-03-14T01:47:22;98885.72;;;6.38;100.00
13420;BME280;6781;58.440;15.470;2023-03-14T01:49:52;98832.50;;;6.00;100.00
13420;BME280;6781;58.440;15.470;2023-03-14T01:52:22;98870.44;;;6.27;100.00
13420;BME280;6781;58.440;15.470;2023-03-14T01:54:53;98777.25;;;5.66;100.00
13420;BME280;6781;58.440;15.470;2023-03-14T01:57:24;98836.03;;;6.09;100.00
13420;BME280;6781;58.440;15.470;2023-03-14T01:59:57;98889.38;;;6.36;100.00
13420;BME280;6781;58.440;15.470;2023-03-14T02:02:27;98872.72;;;6.30;100.00
13420;BME280;6781;58.440;15.470;2023-03-14T02:07:36;98826.97;;;6.05;100.00
13420;BME280;6781;58.440;15.470;2023-03-14T02:10:05;98836.56;;;6.12;100.00
13420;BME280;6781;58.440;15.470;2023-03-14T02:12:35;98861.47;;;6.31;100.00
13420;BME280;6781;58.440;15.470;2023-03-14T02:15:02;98824.13;;;6.08;100.00
13420;BME280;6781;58.440;15.470;2023-03-14T02:17:31;98839.00;;;6.33;100.00
13420;BME280;6781;58.440;15.470;2023-03-14T02:20:17;98832.78;;;6.26;100.00
13420;BME280;6781;58.440;15.470;2023-03-14T02:22:49;98817.19;;;6.18;100.00
13420;BME280;6781;58.440;15.470;2023-03-14T02:25:19;98735.84;;;5.69;100.00
13420;BME280;6781;58.440;15.470;2023-03-14T02:27:51;98831.94;;;6.35;100.00
13420;BME280;6781;58.440;15.470;2023-03-14T02:30:20;98840.63;;;6.34;100.00
13420;BME280;6781;58.440;15.470;2023-03-14T02:32:49;98818.03;;;6.09;100.00
13420;BME280;6781;58.440;15.470;2023-03-14T02:35:20;98622.25;;;4.98;100.00
13420;BME280;6781;58.440;15.470;2023-03-14T02:37:53;98662.13;;;5.31;100.00
13420;BME280;6781;58.440;15.470;2023-03-14T02:40:21;98649.00;;;5.34;100.00
13420;BME280;6781;58.440;15.470;2023-03-14T02:42:48;98783.06;;;6.16;100.00
13420;BME280;6781;58.440;15.470;2023-03-14T02:45:45;98780.88;;;6.31;100.00
13420;BME280;6781;58.440;15.470;2023-03-14T02:48:16;98655.47;;;5.47;100.00
13420;BME280;6781;58.440;15.470;2023-03-14T02:50:46;98730.13;;;5.84;100.00
13420;BME280;6781;58.440;15.470;2023-03-14T02:53:17;98705.78;;;5.88;100.00
13420;BME280;6781;58.440;15.470;2023-03-14T02:55:46;98706.72;;;5.87;100.00
13420;BME280;6781;58.440;15.470;2023-03-14T02:58:14;98781.00;;;6.39;100.00
13420;BME280;6781;58.440;15.470;2023-03-14T03:00:45;98693.63;;;5.91;100.00
13420;BME280;6781;58.440;15.470;2023-03-14T03:03:13;98652.38;;;5.53;100.00
13420;BME280;6781;58.440;15.470;2023-03-14T03:05:41;98773.69;;;6.34;100.00
13420;BME280;6781;58.440;15.470;2023-03-14T03:08:09;98768.44;;;6.26;100.00
13420;BME280;6781;58.440;15.470;2023-03-14T03:10:37;98674.41;;;5.56;100.00
13420;BME280;6781;58.440;15.470;2023-03-14T03:13:04;98716.34;;;5.76;100.00
13420;BME280;6781;58.440;15.470;2023-03-14T03:15:31;98716.34;;;5.85;100.00
13420;BME280;6781;58.440;15.470;2023-03-14T03:17:59;98730.97;;;5.95;100.00
13420;BME280;6781;58.440;15.470;2023-03-14T03:20:26;98663.59;;;5.43;100.00
13420;BME280;6781;58.440;15.470;2023-03-14T03:22:53;98713.38;;;5.61;100.00
13420;BME280;6781;58.440;15.470;2023-03-14T03:25:20;98799.19;;;6.18;100.00
13420;BME280;6781;58.440;15.470;2023-03-14T03:27:47;98758.88;;;5.90;100.00
13420;BME280;6781;58.440;15.470;2023-03-14T03:30:15;98668.19;;;5.30;100.00
13420;BME280;6781;58.440;15.470;2023-03-14T03:32:42;98805.84;;;6.11;100.00
13420;BME280;6781;58.440;15.470;2023-03-14T03:35:11;98817.06;;;6.10;100.00
13420;BME280;6781;58.440;15.470;2023-03-14T03:37:38;98830.22;;;6.07;100.00
13420;BME280;6781;58.440;15.470;2023-03-14T03:40:06;98744.78;;;5.55;100.00
13420;BME280;6781;58.440;15.470;2023-03-14T03:42:34;98784.56;;;5.70;100.00
13420;BME280;6781;58.440;15.470;2023-03-14T03:45:02;98802.97;;;5.66;100.00
13420;BME280;6781;58.440;15.470;2023-03-14T03:47:30;98816.50;;;5.77;100.00
13420;BME280;6781;58.440;15.470;2023-03-14T03:49:57;98838.81;;;5.67;100.00
13420;BME280;6781;58.440;15.470;2023-03-14T03:52:25;98765.16;;;5.28;100.00
13420;BME280;6781;58.440;15.470;2023-03-14T03:54:52;98828.63;;;5.37;100.00
13420;BME280;6781;58.440;15.470;2023-03-14T03:57:19;98793.56;;;5.26;100.00
13420;BME280;6781;58.440;15.470;2023-03-14T03:59:46;98879.44;;;5.73;100.00
13420;BME280;6781;58.440;15.470;2023-03-14T04:02:13;98894.19;;;5.71;100.00
13420;BME280;6781;58.440;15.470;2023-03-14T04:04:40;98909.06;;;5.68;100.00
13420;BME280;6781;58.440;15.470;2023-03-14T04:07:07;98765.38;;;4.55;100.00
13420;BME280;6781;58.440;15.470;2023-03-14T04:09:37;98908.19;;;5.48;100.00
13420;BME280;6781;58.440;15.470;2023-03-14T04:12:04;98890.81;;;5.31;100.00
13420;BME280;6781;58.440;15.470;2023-03-14T04:14:31;98703.81;;;4.04;100.00
13420;BME280;6781;58.440;15.470;2023-03-14T04:16:58;98911.06;;;5.14;100.00
13420;BME280;6781;58.440;15.470;2023-03-14T04:19:25;98976.88;;;5.36;100.00
13420;BME280;6781;58.440;15.470;2023-03-14T04:21:52;98991.59;;;5.34;100.00
13420;BME280;6781;58.440;15.470;2023-03-14T04:24:19;98767.38;;;4.01;100.00
13420;BME280;6781;58.440;15.470;2023-03-14T04:26:48;98985.22;;;5.29;100.00
13420;BME280;6781;58.440;15.470;2023-03-14T04:29:15;98988.03;;;5.26;100.00
13420;BME280;6781;58.440;15.470;2023-03-14T04:31:42;98958.59;;;4.99;100.00
13420;BME280;6781;58.440;15.470;2023-03-14T04:34:09;98956.59;;;4.82;100.00
13420;BME280;6781;58.440;15.470;2023-03-14T04:36:36;98954.75;;;4.73;100.00
13420;BME280;6781;58.440;15.470;2023-03-14T04:39:03;99039.00;;;5.20;100.00
13420;BME280;6781;58.440;15.470;2023-03-14T04:41:31;99023.50;;;5.01;100.00
13420;BME280;6781;58.440;15.470;2023-03-14T04:44:00;98882.56;;;4.24;100.00
13420;BME280;6781;58.440;15.470;2023-03-14T04:46:27;98893.84;;;4.01;100.00
13420;BME280;6781;58.440;15.470;2023-03-14T04:48:54;98978.38;;;4.67;100.00
13420;BME280;6781;58.440;15.470;2023-03-14T04:51:22;99061.09;;;5.02;100.00
13420;BME280;6781;58.440;15.470;2023-03-14T04:53:52;98985.00;;;4.69;100.00
13420;BME280;6781;58.440;15.470;2023-03-14T04:56:20;99080.06;;;5.11;100.00
13420;BME280;6781;58.440;15.470;2023-03-14T04:58:47;98931.09;;;4.16;100.00
13420;BME280;6781;58.440;15.470;2023-03-14T05:01:15;99070.66;;;5.00;100.00
13420;BME280;6781;58.440;15.470;2023-03-14T05:03:43;99100.06;;;5.07;100.00
13420;BME280;6781;58.440;15.470;2023-03-14T05:06:10;99065.13;;;4.84;100.00
13420;BME280;6781;58.440;15.470;2023-03-14T05:08:37;98940.56;;;4.05;100.00
13420;BME280;6781;58.440;15.470;2023-03-14T05:11:05;99017.38;;;4.61;100.00
13420;BME280;6781;58.440;15.470;2023-03-14T05:13:32;99090.03;;;5.04;100.00
13420;BME280;6781;58.440;15.470;2023-03-14T05:16:06;99080.00;;;5.01;100.00
13420;BME280;6781;58.440;15.470;2023-03-14T05:18:35;99047.06;;;4.74;100.00
13420;BME280;6781;58.440;15.470;2023-03-14T05:21:03;99087.94;;;4.98;100.00
13420;BME280;6781;58.440;15.470;2023-03-14T05:23:30;99097.53;;;4.96;100.00
13420;BME280;6781;58.440;15.470;2023-03-14T05:25:57;99063.03;;;4.78;100.00
13420;BME280;6781;58.440;15.470;2023-03-14T05:28:24;98996.69;;;4.30;100.00
13420;BME280;6781;58.440;15.470;2023-03-14T05:30:51;99094.50;;;4.91;100.00
13420;BME280;6781;58.440;15.470;2023-03-14T05:33:18;99012.75;;;4.43;100.00
13420;BME280;6781;58.440;15.470;2023-03-14T05:35:47;98937.78;;;3.97;100.00
13420;BME280;6781;58.440;15.470;2023-03-14T05:38:16;98866.13;;;3.52;100.00
13420;BME280;6781;58.440;15.470;2023-03-14T05:40:52;98932.31;;;3.90;100.00
13420;BME280;6781;58.440;15.470;2023-03-14T05:43:20;98975.28;;;4.09;100.00
13420;BME280;6781;58.440;15.470;2023-03-14T05:45:47;99088.28;;;4.73;100.00
13420;BME280;6781;58.440;15.470;2023-03-14T05:48:17;98993.44;;;4.28;100.00
13420;BME280;6781;58.440;15.470;2023-03-14T05:50:46;98931.75;;;3.86;100.00
13420;BME280;6781;58.440;15.470;2023-03-14T05:53:15;98926.16;;;3.92;100.00
13420;BME280;6781;58.440;15.470;2023-03-14T05:55:42;98911.63;;;3.71;100.00
13420;BME280;6781;58.440;15.470;2023-03-14T05:58:09;98959.69;;;4.01;100.00
13420;BME280;6781;58.440;15.470;2023-03-14T06:00:38;98822.19;;;3.02;100.00
13420;BME280;6781;58.440;15.470;2023-03-14T06:03:05;98893.16;;;3.45;100.00
13420;BME280;6781;58.440;15.470;2023-03-14T06:05:32;98853.50;;;3.28;100.00
13420;BME280;6781;58.440;15.470;2023-03-14T06:07:59;98903.81;;;3.72;100.00
13420;BME280;6781;58.440;15.470;2023-03-14T06:10:28;99045.97;;;4.56;100.00
13420;BME280;6781;58.440;15.470;2023-03-14T06:12:55;98918.47;;;3.81;100.00
13420;BME280;6781;58.440;15.470;2023-03-14T06:15:22;99033.00;;;4.57;100.00
13420;BME280;6781;58.440;15.470;2023-03-14T06:17:49;98961.09;;;4.05;100.00
13420;BME280;6781;58.440;15.470;2023-03-14T06:20:19;98899.16;;;3.66;100.00
13420;BME280;6781;58.440;15.470;2023-03-14T06:22:46;99016.91;;;4.55;100.00
13420;BME280;6781;58.440;15.470;2023-03-14T06:25:13;98808.44;;;3.25;100.00
13420;BME280;6781;58.440;15.470;2023-03-14T06:27:44;98811.72;;;3.05;100.00
13420;BME280;6781;58.440;15.470;2023-03-14T06:30:13;98958.28;;;4.08;100.00
13420;BME280;6781;58.440;15.470;2023-03-14T06:32:40;98814.75;;;2.99;100.00
13420;BME280;6781;58.440;15.470;2023-03-14T06:35:08;99032.31;;;4.55;100.00
13420;BME280;6781;58.440;15.470;2023-03-14T06:37:35;98961.31;;;4.02;100.00
13420;BME280;6781;58.440;15.470;2023-03-14T06:40:03;99028.84;;;4.45;100.00
13420;BME280;6781;58.440;15.470;2023-03-14T06:42:32;99024.16;;;4.50;100.00
13420;BME280;6781;58.440;15.470;2023-03-14T06:45:02;98957.81;;;4.03;100.00
13420;BME280;6781;58.440;15.470;2023-03-14T06:47:29;99004.53;;;4.17;100.00
13420;BME280;6781;58.440;15.470;2023-03-14T06:49:56;99009.03;;;4.36;100.00
13420;BME280;6781;58.440;15.470;2023-03-14T06:52:23;99031.75;;;4.52;100.00
13420;BME280;6781;58.440;15.470;2023-03-14T06:54:50;99055.53;;;4.54;100.00
13420;BME280;6781;58.440;15.470;2023-03-14T06:57:17;98957.81;;;4.03;100.00
13420;BME280;6781;58.440;15.470;2023-03-14T06:59:44;99020.22;;;4.46;100.00
13420;BME280;6781;58.440;15.470;2023-03-14T07:02:13;99042.91;;;4.62;100.00
13420;BME280;6781;58.440;15.470;2023-03-14T07:04:41;98904.06;;;3.69;100.00
13420;BME280;6781;58.440;15.470;2023-03-14T07:07:08;98967.13;;;4.15;100.00
13420;BME280;6781;58.440;15.470;2023-03-14T07:09:35;99049.09;;;4.60;100.00
13420;BME280;6781;58.440;15.470;2023-03-14T07:12:03;98808.22;;;3.06;100.00
13420;BME280;6781;58.440;15.470;2023-03-14T07:14:30;99041.88;;;4.53;100.00
13420;BME280;6781;58.440;15.470;2023-03-14T07:17:00;98793.09;;;3.03;100.00
13420;BME280;6781;58.440;15.470;2023-03-14T07:19:38;98915.91;;;3.81;100.00
13420;BME280;6781;58.440;15.470;2023-03-14T07:22:05;98960.63;;;4.00;100.00
13420;BME280;6781;58.440;15.470;2023-03-14T07:24:32;98952.22;;;4.09;100.00
13420;BME280;6781;58.440;15.470;2023-03-14T07:26:59;98969.56;;;4.16;100.00
13420;BME280;6781;58.440;15.470;2023-03-14T07:29:29;99043.03;;;4.61;100.00
13420;BME280;6781;58.440;15.470;2023-03-14T07:31:56;98973.63;;;4.19;100.00
13420;BME280;6781;58.440;15.470;2023-03-14T07:34:23;99047.81;;;4.65;100.00
13420;BME280;6781;58.440;15.470;2023-03-14T07:36:51;99056.53;;;4.74;100.00
13420;BME280;6781;58.440;15.470;2023-03-14T07:39:18;99015.78;;;4.48;100.00
13420;BME280;6781;58.440;15.470;2023-03-14T07:41:45;99031.53;;;4.76;100.00
13420;BME280;6781;58.440;15.470;2023-03-14T07:44:12;98943.09;;;4.16;100.00
13420;BME280;6781;58.440;15.470;2023-03-14T07:46:39;98881.97;;;3.89;100.00
13420;BME280;6781;58.440;15.470;2023-03-14T07:49:06;98857.25;;;3.56;100.00
13420;BME280;6781;58.440;15.470;2023-03-14T07:51:33;99051.47;;;4.83;100.00
13420;BME280;6781;58.440;15.470;2023-03-14T07:54:01;98969.78;;;4.56;100.00
13420;BME280;6781;58.440;15.470;2023-03-14T07:56:28;98978.63;;;4.64;100.00
13420;BME280;6781;58.440;15.470;2023-03-14T07:58:56;99018.09;;;5.04;100.00
13420;BME280;6781;58.440;15.470;2023-03-14T08:01:23;98933.97;;;4.55;100.00
13420;BME280;6781;58.440;15.470;2023-03-14T08:03:50;99011.59;;;5.00;100.00
13420;BME280;6781;58.440;15.470;2023-03-14T08:06:17;98995.03;;;4.93;100.00
13420;BME280;6781;58.440;15.470;2023-03-14T08:08:44;98988.28;;;4.92;100.00
13420;BME280;6781;58.440;15.470;2023-03-14T08:11:16;98913.75;;;4.62;100.00
13420;BME280;6781;58.440;15.470;2023-03-14T08:13:43;98904.47;;;4.49;100.00
13420;BME280;6781;58.440;15.470;2023-03-14T08:16:15;98879.75;;;4.48;100.00
13420;BME280;6781;58.440;15.470;2023-03-14T08:18:42;98885.44;;;4.52;100.00
13420;BME280;6781;58.440;15.470;2023-03-14T08:21:12;98967.84;;;5.11;100.00
13420;BME280;6781;58.440;15.470;2023-03-14T08:23:39;98884.25;;;4.56;100.00
13420;BME280;6781;58.440;15.470;2023-03-14T08:26:07;98963.91;;;5.07;100.00
13420;BME280;6781;58.440;15.470;2023-03-14T08:28:36;98949.22;;;5.19;100.00
13420;BME280;6781;58.440;15.470;2023-03-14T08:31:03;98824.47;;;4.44;100.00
13420;BME280;6781;58.440;15.470;2023-03-14T08:33:30;98747.78;;;4.00;100.00
13420;BME280;6781;58.440;15.470;2023-03-14T08:35:59;98720.47;;;3.89;100.00
13420;BME280;6781;58.440;15.470;2023-03-14T08:38:27;98879.84;;;4.88;100.00
13420;BME280;6781;58.440;15.470;2023-03-14T08:40:57;98826.13;;;4.76;100.00
13420;BME280;6781;58.440;15.470;2023-03-14T08:43:24;98921.81;;;5.39;100.00
13420;BME280;6781;58.440;15.470;2023-03-14T08:45:53;98856.94;;;5.06;100.00
13420;BME280;6781;58.440;15.470;2023-03-14T08:48:20;98910.66;;;5.59;100.00
13420;BME280;6781;58.440;15.470;2023-03-14T08:50:47;98854.84;;;5.31;100.00
13420;BME280;6781;58.440;15.470;2023-03-14T08:53:16;98821.81;;;5.07;100.00
13420;BME280;6781;58.440;15.470;2023-03-14T08:55:44;98734.13;;;4.81;100.00
13420;BME280;6781;58.440;15.470;2023-03-14T08:58:11;98862.94;;;5.76;100.00
13420;BME280;6781;58.440;15.470;2023-03-14T09:00:38;98630.06;;;4.17;100.00
13420;BME280;6781;58.440;15.470;2023-03-14T09:03:07;98779.91;;;5.26;100.00
13420;BME280;6781;58.440;15.470;2023-03-14T09:05:34;98738.53;;;5.09;100.00
13420;BME280;6781;58.440;15.470;2023-03-14T09:08:01;98585.94;;;4.23;100.00
13420;BME280;6781;58.440;15.470;2023-03-14T09:10:29;98800.50;;;5.54;100.00
13420;BME280;6781;58.440;15.470;2023-03-14T09:12:56;98691.16;;;4.83;100.00
13420;BME280;6781;58.440;15.470;2023-03-14T09:15:24;98684.66;;;4.79;100.00
13420;BME280;6781;58.440;15.470;2023-03-14T09:17:51;98735.00;;;5.30;100.00
13420;BME280;6781;58.440;15.470;2023-03-14T09:20:19;98642.78;;;4.88;100.00
13420;BME280;6781;58.440;15.470;2023-03-14T09:22:47;98626.28;;;4.81;100.00
13420;BME280;6781;58.440;15.470;2023-03-14T09:25:14;98774.00;;;5.73;100.00
13420;BME280;6781;58.440;15.470;2023-03-14T09:27:41;98684.84;;;5.06;100.00
13420;BME280;6781;58.440;15.470;2023-03-14T09:30:09;98590.06;;;4.65;100.00
13420;BME280;6781;58.440;15.470;2023-03-14T09:32:36;98722.44;;;5.46;100.00
13420;BME280;6781;58.440;15.470;2023-03-14T09:35:04;98699.72;;;5.32;100.00
13420;BME280;6781;58.440;15.470;2023-03-14T09:37:33;98604.91;;;4.61;100.00
13420;BME280;6781;58.440;15.470;2023-03-14T09:40:00;98549.50;;;4.30;100.00
13420;BME280;6781;58.440;15.470;2023-03-14T09:42:35;98702.72;;;5.17;100.00
13420;BME280;6781;58.440;15.470;2023-03-14T09:45:05;98466.75;;;3.68;100.00
13420;BME280;6781;58.440;15.470;2023-03-14T09:47:33;98740.44;;;5.17;100.00
13420;BME280;6781;58.440;15.470;2023-03-14T09:50:01;98630.00;;;4.48;100.00
13420;BME280;6781;58.440;15.470;2023-03-14T09:52:31;98759.75;;;5.02;100.00
13420;BME280;6781;58.440;15.470;2023-03-14T09:55:03;98713.31;;;4.74;100.00
13420;BME280;6781;58.440;15.470;2023-03-14T09:57:33;98518.44;;;3.73;100.00
13420;BME280;6781;58.440;15.470;2023-03-14T10:00:04;98533.44;;;3.87;100.00
13420;BME280;6781;58.440;15.470;2023-03-14T10:02:40;98623.13;;;4.48;100.00
13420;BME280;6781;58.440;15.470;2023-03-14T10:05:15;98763.72;;;5.54;100.00
13420;BME280;6781;58.440;15.470;2023-03-14T10:07:43;98751.13;;;5.51;100.00
13420;BME280;6781;58.440;15.470;2023-03-14T10:10:15;98748.56;;;5.41;100.00
13420;BME280;6781;58.440;15.470;2023-03-14T10:12:45;98717.16;;;5.28;100.00
13420;BME280;6781;58.440;15.470;2023-03-14T10:15:14;98603.97;;;4.52;100.00
13420;BME280;6781;58.440;15.470;2023-03-14T10:17:48;98629.00;;;4.89;100.00
13420;BME280;6781;58.440;15.470;2023-03-14T10:20:28;98506.28;;;4.25;100.00
13420;BME280;6781;58.440;15.470;2023-03-14T10:22:59;98479.13;;;4.13;100.00
13420;BME280;6781;58.440;15.470;2023-03-14T10:25:30;98713.09;;;5.64;100.00
13420;BME280;6781;58.440;15.470;2023-03-14T10:27:59;98719.06;;;5.74;100.00
13420;BME280;6781;58.440;15.470;2023-03-14T10:30:30;98623.59;;;5.02;100.00
13420;BME280;6781;58.440;15.470;2023-03-14T10:33:10;98618.47;;;5.11;100.00
13420;BME280;6781;58.440;15.470;2023-03-14T10:35:37;98635.78;;;5.09;100.00
13420;BME280;6781;58.440;15.470;2023-03-14T10:38:05;98468.19;;;4.01;100.00
13420;BME280;6781;58.440;15.470;2023-03-14T10:40:36;98562.63;;;4.55;100.00
13420;BME280;6781;58.440;15.470;2023-03-14T10:43:06;98464.94;;;4.09;100.00
13420;BME280;6781;58.440;15.470;2023-03-14T10:45:36;98687.69;;;5.51;100.00
13420;BME280;6781;58.440;15.470;2023-03-14T10:48:19;98499.81;;;4.40;100.00
13420;BME280;6781;58.440;15.470;2023-03-14T10:50:55;98691.47;;;5.57;100.00
13420;BME280;6781;58.440;15.470;2023-03-14T10:53:23;98412.84;;;4.18;100.00
13420;BME280;6781;58.440;15.470;2023-03-14T10:55:55;98580.34;;;5.16;100.00
13420;BME280;6781;58.440;15.470;2023-03-14T10:58:25;98596.84;;;5.04;100.00
13420;BME280;6781;58.440;15.470;2023-03-14T11:00:58;98583.59;;;5.18;100.00
13420;BME280;6781;58.440;15.470;2023-03-14T11:03:29;98545.50;;;4.75;100.00
13420;BME280;6781;58.440;15.470;2023-03-14T11:06:06;98488.47;;;4.62;100.00
13420;BME280;6781;58.440;15.470;2023-03-14T11:08:45;98530.88;;;5.14;100.00
13420;BME280;6781;58.440;15.470;2023-03-14T11:11:28;98600.94;;;5.63;100.00
13420;BME280;6781;58.440;15.470;2023-03-14T11:14:06;98624.63;;;5.47;100.00
13420;BME280;6781;58.440;15.470;2023-03-14T11:16:46;98436.81;;;4.94;100.00
13420;BME280;6781;58.440;15.470;2023-03-14T11:19:48;98477.38;;;5.28;100.00
13420;BME280;6781;58.440;15.470;2023-03-14T11:22:28;98534.25;;;5.52;100.00
13420;BME280;6781;58.440;15.470;2023-03-14T11:25:07;98453.81;;;5.05;100.00
13420;BME280;6781;58.440;15.470;2023-03-14T11:27:46;98537.88;;;5.59;100.00
13420;BME280;6781;58.440;15.470;2023-03-14T11:30:21;98476.44;;;5.29;100.00
13420;BME280;6781;58.440;15.470;2023-03-14T11:32:57;98462.50;;;5.31;100.00
13420;BME280;6781;58.440;15.470;2023-03-14T11:35:30;98492.25;;;5.34;100.00
13420;BME280;6781;58.440;15.470;2023-03-14T11:38:05;98331.22;;;4.70;100.00
13420;BME280;6781;58.440;15.470;2023-03-14T11:40:37;98430.69;;;5.42;100.00
13420;BME280;6781;58.440;15.470;2023-03-14T11:43:13;98450.56;;;5.40;100.00
13420;BME280;6781;58.440;15.470;2023-03-14T11:45:43;98344.97;;;4.78;100.00
13420;BME280;6781;58.440;15.470;2023-03-14T11:48:17;98487.44;;;5.58;100.00
13420;BME280;6781;58.440;15.470;2023-03-14T11:50:50;98491.09;;;5.55;100.00
13420;BME280;6781;58.440;15.470;2023-03-14T11:53:22;98377.16;;;4.63;100.00
13420;BME280;6781;58.440;15.470;2023-03-14T11:55:52;98309.72;;;4.24;100.00
13420;BME280;6781;58.440;15.470;2023-03-14T11:58:25;98369.06;;;4.68;100.00
13420;BME280;6781;58.440;15.470;2023-03-14T12:00:54;98236.63;;;3.91;100.00
13420;BME280;6781;58.440;15.470;2023-03-14T12:03:28;98457.88;;;5.35;100.00
13420;BME280;6781;58.440;15.470;2023-03-14T12:06:12;98342.63;;;4.38;100.00
13420;BME280;6781;58.440;15.470;2023-03-14T12:08:50;98232.88;;;3.66;100.00
13420;BME280;6781;58.440;15.470;2023-03-14T12:11:33;98366.06;;;4.72;100.00
13420;BME280;6781;58.440;15.470;2023-03-14T12:14:02;98237.47;;;3.72;100.00
13420;BME280;6781;58.440;15.470;2023-03-14T12:16:35;98253.22;;;3.97;100.00
13420;BME280;6781;58.440;15.470;2023-03-14T12:19:31;98362.56;;;4.64;100.00
13420;BME280;6781;58.440;15.470;2023-03-14T12:22:02;98349.25;;;4.41;100.00
13420;BME280;6781;58.440;15.470;2023-03-14T12:24:34;98437.97;;;5.19;100.00
13420;BME280;6781;58.440;15.470;2023-03-14T12:27:04;98222.06;;;3.91;100.00
13420;BME280;6781;58.440;15.470;2023-03-14T12:29:59;98224.59;;;4.01;100.00
13420;BME280;6781;58.440;15.470;2023-03-14T12:32:26;98200.09;;;3.79;100.00
13420;BME280;6781;58.440;15.470;2023-03-14T12:34:54;98349.84;;;4.72;100.00
13420;BME280;6781;58.440;15.470;2023-03-14T12:37:26;98426.16;;;5.26;100.00
13420;BME280;6781;58.440;15.470;2023-03-14T12:40:05;98307.91;;;4.53;100.00
13420;BME280;6781;58.440;15.470;2023-03-14T12:42:51;98411.81;;;5.23;100.00
13420;BME280;6781;58.440;15.470;2023-03-14T12:45:27;98343.56;;;4.94;100.00
13420;BME280;6781;58.440;15.470;2023-03-14T12:48:08;98408.78;;;5.38;100.00
13420;BME280;6781;58.440;15.470;2023-03-14T12:50:40;98204.47;;;4.06;100.00
13420;BME280;6781;58.440;15.470;2023-03-14T12:53:32;98405.06;;;5.22;100.00
13420;BME280;6781;58.440;15.470;2023-03-14T12:56:24;98202.88;;;3.96;100.00
13420;BME280;6781;58.440;15.470;2023-03-14T12:59:13;98414.31;;;5.15;100.00
13420;BME280;6781;58.440;15.470;2023-03-14T13:01:53;98321.13;;;4.58;100.00
13420;BME280;6781;58.440;15.470;2023-03-14T13:04:27;98374.66;;;4.90;100.00
13420;BME280;6781;58.440;15.470;2023-03-14T13:06:56;98289.72;;;4.37;100.00
13420;BME280;6781;58.440;15.470;2023-03-14T13:12:23;98402.84;;;4.63;100.00
13420;BME280;6781;58.440;15.470;2023-03-14T13:14:53;98288.31;;;3.96;100.00
13420;BME280;6781;58.440;15.470;2023-03-14T13:17:26;98403.13;;;4.50;100.00
13420;BME280;6781;58.440;15.470;2023-03-14T13:19:57;98450.25;;;4.49;100.00